Time;durP1;ratioP1;P1;durP2;ratioP2;P2;SDS_P1;SDS_P2;PMS_P1;PMS_P2;Temp;Humidity;BMP_temperature;BMP_pressure;BME280_temperature;BME280_humidity;BME280_pressure;Samples;Min_cycle;Max_cycle;Signal;HPM_P1;HPM_P2
2022/01/26 00:07:37;;;;;;;16.23;13.00;;;-8.20;96.70;-9.00;98108.00;;;;5021759;28;87589;-61
2022/01/26 00:10:04;;;;;;;16.42;14.32;;;-8.10;96.60;-9.00;98122.00;;;;5021066;28;87525;-61
2022/01/26 00:12:30;;;;;;;17.20;14.52;;;-8.20;96.60;-9.00;98112.00;;;;5020335;28;87125;-61
2022/01/26 00:14:56;;;;;;;14.45;12.48;;;-8.10;96.50;-9.00;98119.00;;;;5020130;28;87269;-61
2022/01/26 00:17:22;;;;;;;15.65;13.82;;;-8.10;96.40;-9.00;98119.00;;;;5020480;28;88535;-61
2022/01/26 00:20:02;;;;;;;15.93;14.25;;;-8.20;96.50;-8.90;98140.00;;;;5020366;28;88287;-61
2022/01/26 00:38:46;;;;;;;17.02;14.95;;;-8.10;96.60;-8.90;98124.00;;;;5020701;28;87682;-60
2022/01/26 00:41:32;;;;;;;17.30;14.70;;;-8.10;96.60;-8.90;98117.00;;;;5020518;28;88557;-60
2022/01/26 00:43:58;;;;;;;16.40;14.52;;;-8.10;96.60;-8.90;98113.00;;;;5019408;28;88119;-60
2022/01/26 00:46:25;;;;;;;17.00;15.25;;;-8.10;96.60;-8.80;98111.00;;;;5020864;28;88192;-60
2022/01/26 00:48:53;;;;;;;17.73;15.13;;;-8.00;96.60;-8.80;98101.00;;;;5019329;28;87739;-60
2022/01/26 00:51:21;;;;;;;17.85;14.52;;;-8.00;96.60;-8.80;98114.00;;;;5020048;28;87339;-61
2022/01/26 00:54:04;;;;;;;17.92;14.90;;;-8.00;96.60;-8.80;98118.00;;;;5020282;28;87154;-61
2022/01/26 00:56:30;;;;;;;16.63;14.15;;;-8.00;96.60;-8.80;98111.00;;;;5020302;28;87302;-60
2022/01/26 00:58:57;;;;;;;15.95;13.63;;;-8.00;96.60;-8.80;98120.00;;;;5019999;28;87626;-60
2022/01/26 01:01:24;;;;;;;16.25;14.50;;;-8.00;96.60;-8.80;98118.00;;;;5021048;28;87359;-60
2022/01/26 01:03:50;;;;;;;17.20;14.13;;;-8.00;96.40;-8.90;98120.00;;;;5019764;28;87320;-60
2022/01/26 01:08:50;;;;;;;16.23;14.07;;;-8.10;96.30;-8.90;98125.00;;;;5018797;28;88500;-60
2022/01/26 01:11:17;;;;;;;16.08;13.88;;;-8.10;96.10;-8.90;98125.00;;;;5019229;28;88806;-60
2022/01/26 01:13:43;;;;;;;18.25;15.48;;;-8.10;96.10;-8.90;98119.00;;;;5020207;28;87109;-61
2022/01/26 01:16:16;;;;;;;19.73;15.60;;;-8.10;96.30;-8.90;98134.00;;;;5019574;28;87392;-60
2022/01/26 01:18:58;;;;;;;19.15;15.02;;;-8.10;96.40;-9.00;98099.00;;;;5018881;28;87827;-60
2022/01/26 01:22:02;;;;;;;17.00;14.85;;;-8.10;96.40;-9.00;98106.00;;;;5019915;28;88432;-60
2022/01/26 01:30:09;;;;;;;17.02;14.88;;;-8.20;96.40;-9.00;98107.00;;;;5019854;28;87293;-61
2022/01/26 01:32:29;;;;;;;18.10;15.32;;;-8.10;96.50;-9.00;98113.00;;;;5013561;28;89702;-60
2022/01/26 01:34:55;;;;;;;18.48;14.95;;;-8.20;96.60;-9.00;98115.00;;;;5018444;28;88043;-60
2022/01/26 01:37:21;;;;;;;20.15;16.40;;;-8.20;96.60;-9.10;98118.00;;;;5020059;28;88019;-61
2022/01/26 01:39:48;;;;;;;18.95;15.05;;;-8.20;96.70;-9.10;98120.00;;;;5019930;28;87546;-60
2022/01/26 01:42:14;;;;;;;21.52;17.00;;;-8.20;96.80;-9.00;98116.00;;;;5020252;28;87461;-61
2022/01/26 01:44:40;;;;;;;18.30;15.02;;;-8.30;96.80;-9.00;98117.00;;;;5019345;28;87280;-60
2022/01/26 01:47:07;;;;;;;18.23;14.73;;;-8.30;96.90;-9.00;98114.00;;;;5019834;28;87732;-61
2022/01/26 01:49:35;;;;;;;18.27;15.15;;;-8.20;97.00;-9.00;98118.00;;;;5019070;28;87696;-60
2022/01/26 01:52:05;;;;;;;18.30;15.30;;;-8.20;97.00;-9.00;98116.00;;;;5020034;28;87845;-60
2022/01/26 01:54:32;;;;;;;18.50;15.65;;;-8.20;97.00;-9.00;98111.00;;;;5019776;28;86865;-60
2022/01/26 01:56:59;;;;;;;18.75;16.48;;;-8.10;97.00;-9.00;98113.00;;;;5019500;28;87431;-60
2022/01/26 01:59:29;;;;;;;19.42;16.75;;;-8.10;96.90;-9.00;98113.00;;;;5017560;28;89624;-60
2022/01/26 02:01:57;;;;;;;20.30;16.00;;;-8.10;96.90;-9.00;98118.00;;;;5019407;28;87325;-60
2022/01/26 02:04:23;;;;;;;22.55;17.77;;;-8.20;96.90;-9.00;98123.00;;;;5001432;28;87144;-61
2022/01/26 02:06:50;;;;;;;19.08;15.82;;;-8.20;96.90;-9.00;98128.00;;;;5018860;28;87613;-60
2022/01/26 02:09:16;;;;;;;20.95;17.48;;;-8.10;97.00;-9.10;98112.00;;;;5019548;28;87710;-60
2022/01/26 02:11:55;;;;;;;21.25;18.35;;;-8.20;96.90;-9.10;98123.00;;;;5019134;28;87418;-60
2022/01/26 02:58:22;;;;;;;21.88;17.73;;;-7.80;96.20;-8.60;98130.00;;;;5018606;28;87372;-60
2022/01/26 03:03:27;;;;;;;20.42;16.67;;;-7.70;96.30;-8.50;98137.00;;;;5023063;28;88099;-60
2022/01/26 03:05:59;;;;;;;23.05;17.98;;;-7.70;96.20;-8.40;98139.00;;;;5021912;28;87411;-60
2022/01/26 03:08:36;;;;;;;22.27;18.25;;;-7.60;96.30;-8.40;98139.00;;;;5021500;28;87854;-60
2022/01/26 03:11:08;;;;;;;19.90;17.42;;;-7.60;96.20;-8.40;98141.00;;;;5022653;28;86476;-60
2022/01/26 03:13:39;;;;;;;21.27;18.55;;;-7.60;96.10;-8.40;98129.00;;;;5022217;28;87645;-60
2022/01/26 03:16:22;;;;;;;22.00;18.85;;;-7.60;96.10;-8.40;98132.00;;;;5022063;28;87675;-60
2022/01/26 03:19:52;;;;;;;24.20;19.35;;;-7.60;96.10;-8.30;98124.00;;;;5021150;28;88002;-60
2022/01/26 03:22:20;;;;;;;22.98;19.42;;;-7.50;96.10;-8.30;98127.00;;;;5007688;28;86977;-60
2022/01/26 03:35:18;;;;;;;23.45;18.85;;;-7.60;96.20;-8.30;98120.00;;;;5018218;28;87657;-61
2022/01/26 03:37:54;;;;;;;25.08;19.02;;;-7.50;96.20;-8.30;98127.00;;;;5021773;28;86368;-60
2022/01/26 03:40:29;;;;;;;22.00;18.58;;;-7.50;96.30;-8.20;98130.00;;;;5009408;28;86903;-60
2022/01/26 03:42:56;;;;;;;25.00;19.95;;;-7.50;96.30;-8.20;98138.00;;;;5021714;28;86916;-61
2022/01/26 03:45:22;;;;;;;22.95;20.02;;;-7.40;96.30;-8.20;98131.00;;;;5020913;28;88566;-61
2022/01/26 03:47:48;;;;;;;24.38;20.10;;;-7.50;96.30;-8.20;98127.00;;;;5020903;28;89469;-60
2022/01/26 03:50:14;;;;;;;25.17;20.85;;;-7.40;96.60;-8.20;98140.00;;;;5020814;28;87918;-61
2022/01/26 03:52:40;;;;;;;29.75;22.60;;;-7.40;96.50;-8.10;98135.00;;;;5021235;28;87572;-61
2022/01/26 03:55:07;;;;;;;28.38;22.33;;;-7.40;96.60;-8.10;98137.00;;;;5020970;28;87687;-61
2022/01/26 03:57:33;;;;;;;33.25;24.25;;;-7.40;96.80;-8.10;98140.00;;;;5020129;28;87618;-61
2022/01/26 03:59:59;;;;;;;33.03;24.70;;;-7.40;96.90;-8.10;98134.00;;;;5020959;28;86968;-60
2022/01/26 04:02:25;;;;;;;34.35;25.23;;;-7.30;97.10;-8.10;98137.00;;;;5021807;28;87032;-60
2022/01/26 04:04:57;;;;;;;35.97;27.05;;;-7.40;97.10;-8.10;98135.00;;;;5020252;28;87632;-60
2022/01/26 04:07:23;;;;;;;33.10;26.15;;;-7.30;97.30;-8.10;98142.00;;;;5020685;28;87588;-59
2022/01/26 04:09:50;;;;;;;39.75;27.48;;;-7.30;97.30;-8.10;98132.00;;;;5020522;28;88224;-62
2022/01/26 04:12:16;;;;;;;34.50;25.42;;;-7.30;97.40;-8.00;98141.00;;;;5019957;28;87014;-61
2022/01/26 04:14:47;;;;;;;35.90;26.30;;;-7.30;97.40;-8.00;98148.00;;;;5020484;28;88688;-62
2022/01/26 04:17:13;;;;;;;35.25;26.90;;;-7.30;97.50;-8.00;98135.00;;;;5020986;28;87260;-61
2022/01/26 04:19:40;;;;;;;36.03;26.90;;;-7.20;97.50;-8.00;98126.00;;;;5020562;28;86997;-60
2022/01/26 04:22:23;;;;;;;35.58;25.73;;;-7.20;97.50;-7.90;98138.00;;;;5020562;28;87901;-60
2022/01/26 04:24:52;;;;;;;37.45;27.15;;;-7.20;97.40;-7.90;98139.00;;;;5019022;28;87663;-61
2022/01/26 04:27:35;;;;;;;36.15;26.38;;;-7.20;97.40;-7.90;98143.00;;;;5020652;28;87288;-60
2022/01/26 04:30:02;;;;;;;36.90;26.25;;;-7.20;97.50;-7.90;98136.00;;;;5019361;28;87311;-60
2022/01/26 04:32:29;;;;;;;40.15;28.83;;;-7.20;97.60;-7.80;98145.00;;;;5020208;28;86995;-60
2022/01/26 04:34:56;;;;;;;39.20;29.02;;;-7.20;97.60;-7.80;98147.00;;;;5019243;28;88369;-60
2022/01/26 04:40:25;;;;;;;39.58;30.00;;;-7.10;97.80;-7.80;98144.00;;;;4946029;28;87561;-60
2022/01/26 04:42:59;;;;;;;42.38;29.92;;;-7.10;97.90;-7.80;98146.00;;;;5003477;28;87526;-60
2022/01/26 04:45:25;;;;;;;41.55;29.30;;;-7.10;97.90;-7.80;98142.00;;;;5016913;28;87842;-60
2022/01/26 04:47:51;;;;;;;44.17;30.42;;;-7.10;98.00;-7.80;98145.00;;;;5018759;28;87996;-60
2022/01/26 04:50:17;;;;;;;42.25;30.60;;;-7.10;98.20;-7.80;98153.00;;;;5019585;28;87019;-62
2022/01/26 04:52:46;;;;;;;41.60;30.40;;;-7.10;98.30;-7.80;98156.00;;;;5020622;28;86329;-61
2022/01/26 04:55:13;;;;;;;42.92;30.98;;;-7.10;98.40;-7.80;98152.00;;;;5020395;28;87596;-60
2022/01/26 04:57:40;;;;;;;44.53;30.95;;;-7.10;98.40;-7.70;98150.00;;;;5020271;28;87347;-60
2022/01/26 05:00:08;;;;;;;41.08;29.70;;;-7.00;98.40;-7.80;98148.00;;;;5018755;28;88911;-61
2022/01/26 05:02:35;;;;;;;45.10;32.25;;;-7.10;98.40;-7.70;98158.00;;;;5019891;28;87017;-61
2022/01/26 05:05:01;;;;;;;43.42;30.60;;;-7.00;98.50;-7.70;98148.00;;;;5018718;28;88736;-61
2022/01/26 05:07:29;;;;;;;49.22;34.38;;;-7.00;98.50;-7.70;98149.00;;;;5018154;28;87421;-61
2022/01/26 05:09:55;;;;;;;43.17;31.35;;;-7.00;98.40;-7.70;98147.00;;;;5018847;28;86922;-60
2022/01/26 05:12:22;;;;;;;40.90;29.85;;;-7.00;98.50;-7.70;98151.00;;;;5020051;28;87103;-60
2022/01/26 05:14:49;;;;;;;39.72;30.13;;;-7.00;98.40;-7.70;98144.00;;;;5018366;28;89939;-61
2022/01/26 05:17:19;;;;;;;40.33;31.10;;;-7.00;98.30;-7.70;98128.00;;;;5019480;28;88553;-61
2022/01/26 05:19:45;;;;;;;37.95;28.17;;;-7.00;98.30;-7.70;98132.00;;;;5012612;28;87343;-61
2022/01/26 05:22:11;;;;;;;41.80;30.30;;;-7.00;98.20;-7.60;98132.00;;;;5019557;28;86978;-61
2022/01/26 05:24:38;;;;;;;44.28;31.35;;;-6.90;98.30;-7.60;98148.00;;;;5019205;28;89017;-62
2022/01/26 05:27:04;;;;;;;47.40;34.13;;;-6.90;98.40;-7.60;98130.00;;;;5019489;28;88237;-61
2022/01/26 05:29:30;;;;;;;50.55;35.50;;;-6.90;98.40;-7.60;98135.00;;;;5019325;28;87271;-61
2022/01/26 05:31:56;;;;;;;46.90;33.65;;;-6.90;98.40;-7.50;98139.00;;;;5019426;28;86973;-61
2022/01/26 05:34:22;;;;;;;46.58;33.33;;;-6.90;98.50;-7.50;98129.00;;;;5018858;28;87694;-61
2022/01/26 05:36:48;;;;;;;50.03;35.15;;;-6.80;98.60;-7.50;98139.00;;;;5018836;28;88492;-62
2022/01/26 05:39:14;;;;;;;47.67;34.60;;;-6.80;98.60;-7.50;98138.00;;;;5019544;28;87070;-61
2022/01/26 05:41:41;;;;;;;51.75;34.55;;;-6.80;98.70;-7.50;98145.00;;;;5020118;28;86470;-61
2022/01/26 05:44:07;;;;;;;49.28;34.35;;;-6.80;98.70;-7.50;98145.00;;;;5018207;28;88795;-58
2022/01/26 05:46:42;;;;;;;52.42;34.40;;;-6.80;98.80;-7.40;98137.00;;;;5001361;28;87682;-57
2022/01/26 05:49:09;;;;;;;53.13;35.17;;;-6.70;98.80;-7.40;98125.00;;;;5018566;28;88398;-56
2022/01/26 05:51:35;;;;;;;46.35;33.65;;;-6.70;98.70;-7.40;98133.00;;;;5018782;28;86990;-58
2022/01/26 05:54:04;;;;;;;46.15;33.55;;;-6.70;98.70;-7.40;98135.00;;;;5018969;28;88950;-61
2022/01/26 05:56:30;;;;;;;50.40;34.72;;;-6.70;98.60;-7.40;98136.00;;;;5001500;28;87331;-61
2022/01/26 05:58:57;;;;;;;46.95;34.45;;;-6.70;98.50;-7.40;98130.00;;;;5018682;28;87047;-61
2022/01/26 06:01:23;;;;;;;46.88;33.30;;;-6.70;98.60;-7.40;98125.00;;;;5019102;28;87161;-61
2022/01/26 06:03:49;;;;;;;47.15;34.50;;;-6.70;98.50;-7.40;98145.00;;;;5018315;28;87988;-61
2022/01/26 06:06:16;;;;;;;47.90;32.88;;;-6.70;98.50;-7.40;98143.00;;;;5018835;28;87382;-61
2022/01/26 06:08:43;;;;;;;52.17;35.08;;;-6.70;98.50;-7.40;98148.00;;;;5018822;28;87809;-61
2022/01/26 06:11:09;;;;;;;46.00;33.63;;;-6.70;98.60;-7.40;98136.00;;;;5017999;28;87384;-62
2022/01/26 06:13:35;;;;;;;45.53;32.70;;;-6.70;98.70;-7.30;98146.00;;;;5034116;28;88745;-61
2022/01/26 06:16:02;;;;;;;44.03;31.45;;;-6.60;98.70;-7.30;98142.00;;;;5018720;28;89496;-62
2022/01/26 06:18:28;;;;;;;47.80;33.97;;;-6.60;98.70;-7.20;98141.00;;;;5021310;28;87378;-62
2022/01/26 06:20:55;;;;;;;43.53;31.30;;;-6.60;98.70;-7.20;98133.00;;;;5022436;28;87304;-62
2022/01/26 06:23:24;;;;;;;46.33;32.00;;;-6.50;98.70;-7.20;98139.00;;;;5020822;28;88741;-61
2022/01/26 06:25:57;;;;;;;45.40;32.55;;;-6.50;98.60;-7.10;98154.00;;;;5021691;28;87485;-60
2022/01/26 06:28:27;;;;;;;43.20;31.10;;;-6.40;98.60;-7.10;98142.00;;;;5022857;28;87240;-60
2022/01/26 06:31:03;;;;;;;44.03;32.33;;;-6.40;98.60;-7.10;98141.00;;;;5022041;28;86177;-60
2022/01/26 06:33:33;;;;;;;45.92;33.15;;;-6.40;98.60;-7.00;98139.00;;;;5021164;28;87566;-60
2022/01/26 06:36:00;;;;;;;45.30;33.05;;;-6.40;98.60;-7.00;98151.00;;;;5020064;28;88471;-60
2022/01/26 06:38:28;;;;;;;42.80;32.67;;;-6.30;98.70;-7.00;98138.00;;;;5021078;28;87947;-60
2022/01/26 06:40:56;;;;;;;42.42;30.65;;;-6.30;98.70;-6.90;98142.00;;;;5021954;28;87061;-60
2022/01/26 06:43:26;;;;;;;46.42;32.15;;;-6.20;98.70;-6.90;98146.00;;;;5021270;28;87179;-60
2022/01/26 06:49:28;;;;;;;45.10;30.73;;;-6.10;98.70;-6.80;98147.00;;;;4988807;28;89075;-60
2022/01/26 06:51:43;;;;;;;43.70;30.95;;;-6.10;98.70;-6.70;98144.00;;;;5020360;28;87448;-60
2022/01/26 06:54:09;;;;;;;44.22;31.27;;;-6.00;98.70;-6.60;98147.00;;;;5021748;28;89060;-60
2022/01/26 06:56:35;;;;;;;43.83;29.85;;;-5.90;98.70;-6.50;98156.00;;;;5022786;28;87518;-60
2022/01/26 06:59:01;;;;;;;44.78;32.10;;;-5.90;98.70;-6.50;98156.00;;;;5021980;28;86898;-60
2022/01/26 07:01:27;;;;;;;36.10;27.35;;;-5.80;98.70;-6.50;98170.00;;;;5021889;28;87307;-60
2022/01/26 07:03:53;;;;;;;39.70;28.95;;;-5.80;98.60;-6.40;98156.00;;;;5019792;28;88580;-60
2022/01/26 07:06:19;;;;;;;41.95;29.38;;;-5.80;98.60;-6.40;98161.00;;;;5021205;28;88905;-60
2022/01/26 07:08:46;;;;;;;41.95;29.80;;;-5.70;98.60;-6.30;98170.00;;;;5020915;28;86964;-60
2022/01/26 07:11:12;;;;;;;41.40;29.52;;;-5.70;98.50;-6.30;98167.00;;;;5020624;28;86983;-60
2022/01/26 07:13:42;;;;;;;43.13;30.23;;;-5.70;98.60;-6.30;98177.00;;;;5021394;28;87837;-59
2022/01/26 07:21:37;;;;;;;38.40;27.90;;;-5.60;98.80;-6.20;98158.00;;;;5021823;28;86430;-60
2022/01/26 07:24:04;;;;;;;40.22;28.83;;;-5.50;98.80;-6.10;98154.00;;;;5020810;28;87915;-59
2022/01/26 07:26:30;;;;;;;41.03;29.42;;;-5.50;98.80;-6.10;98173.00;;;;5021572;28;87978;-60
2022/01/26 07:29:00;;;;;;;39.92;29.15;;;-5.50;98.70;-6.10;98181.00;;;;5019949;28;88061;-59
2022/01/26 07:31:26;;;;;;;41.92;28.42;;;-5.50;98.70;-6.10;98180.00;;;;5002226;28;87352;-60
2022/01/26 07:33:55;;;;;;;45.75;30.15;;;-5.40;98.80;-6.00;98166.00;;;;5020819;28;87596;-59
2022/01/26 07:36:22;;;;;;;37.38;28.20;;;-5.30;98.70;-5.90;98180.00;;;;5016869;28;87619;-60
2022/01/26 07:38:50;;;;;;;41.97;30.08;;;-5.30;98.60;-5.90;98187.00;;;;5020937;28;86943;-60
2022/01/26 07:41:17;;;;;;;39.78;28.17;;;-5.30;98.50;-5.90;98164.00;;;;5021207;28;87245;-60
2022/01/26 07:43:44;;;;;;;39.50;28.30;;;-5.20;98.40;-5.90;98186.00;;;;5020917;28;87795;-60
2022/01/26 07:46:11;;;;;;;38.85;28.70;;;-5.20;98.40;-5.80;98196.00;;;;5021689;28;87403;-60
2022/01/26 07:48:37;;;;;;;41.78;30.15;;;-5.20;98.40;-5.80;98197.00;;;;5019669;28;87447;-60
2022/01/26 07:51:04;;;;;;;45.60;29.75;;;-5.20;98.40;-5.80;98183.00;;;;5021043;28;87271;-59
2022/01/26 07:53:32;;;;;;;37.95;28.08;;;-5.20;98.40;-5.80;98189.00;;;;5019787;28;88550;-60
2022/01/26 07:55:58;;;;;;;41.78;29.75;;;-5.20;98.40;-5.80;98195.00;;;;5019901;28;89436;-60
2022/01/26 07:58:25;;;;;;;42.75;28.95;;;-5.10;98.50;-5.70;98197.00;;;;5020704;28;87153;-60
2022/01/26 08:00:52;;;;;;;38.72;27.95;;;-5.10;98.40;-5.60;98190.00;;;;5020668;28;87356;-60
2022/01/26 08:03:18;;;;;;;36.38;27.13;;;-5.00;98.30;-5.60;98198.00;;;;5019477;28;88083;-61
2022/01/26 08:05:44;;;;;;;38.80;27.08;;;-5.00;98.20;-5.60;98194.00;;;;5020154;28;87351;-61
2022/01/26 08:08:10;;;;;;;36.65;25.42;;;-5.00;98.10;-5.60;98198.00;;;;5019451;28;87248;-63
2022/01/26 08:10:37;;;;;;;37.08;27.52;;;-5.00;98.10;-5.60;98204.00;;;;5020971;28;86260;-61
2022/01/26 08:13:04;;;;;;;32.88;24.08;;;-4.90;98.10;-5.40;98191.00;;;;5020060;28;87466;-61
2022/01/26 08:15:30;;;;;;;39.25;25.85;;;-4.80;98.10;-5.40;98201.00;;;;5018819;28;87332;-62
2022/01/26 08:17:58;;;;;;;33.42;24.77;;;-4.80;97.90;-5.40;98190.00;;;;5019911;28;88119;-62
2022/01/26 08:20:25;;;;;;;33.92;25.33;;;-4.80;97.90;-5.40;98203.00;;;;5020687;28;87447;-62
2022/01/26 08:22:56;;;;;;;35.65;23.80;;;-4.80;98.00;-5.30;98187.00;;;;5019930;28;87571;-61
2022/01/26 08:25:22;;;;;;;33.97;24.80;;;-4.80;97.90;-5.40;98203.00;;;;5019001;28;87560;-61
2022/01/26 08:27:56;;;;;;;35.35;24.65;;;-4.70;97.90;-5.30;98201.00;;;;5020665;28;86962;-63
2022/01/26 08:30:22;;;;;;;31.85;23.58;;;-4.70;97.90;-5.30;98210.00;;;;5020248;28;87390;-59
2022/01/26 08:32:49;;;;;;;34.65;24.63;;;-4.70;97.70;-5.20;98210.00;;;;5020051;28;87686;-59
2022/01/26 08:35:15;;;;;;;33.60;24.80;;;-4.60;97.80;-5.20;98206.00;;;;5020447;28;87444;-61
2022/01/26 08:37:41;;;;;;;34.17;24.80;;;-4.60;97.70;-5.20;98213.00;;;;5020509;28;86931;-61
2022/01/26 08:40:08;;;;;;;32.92;24.23;;;-4.50;97.80;-5.10;98212.00;;;;5020614;28;87382;-60
2022/01/26 08:42:34;;;;;;;33.45;24.60;;;-4.50;97.80;-5.10;98209.00;;;;5019365;28;88605;-60
2022/01/26 08:45:00;;;;;;;36.60;25.48;;;-4.50;97.70;-5.10;98218.00;;;;5020261;28;89515;-61
2022/01/26 08:47:26;;;;;;;34.05;23.98;;;-4.50;97.60;-5.10;98227.00;;;;5019882;28;87046;-61
2022/01/26 08:49:52;;;;;;;31.52;24.33;;;-4.50;97.70;-5.10;98216.00;;;;5019990;28;87375;-61
2022/01/26 08:52:18;;;;;;;31.13;24.17;;;-4.50;97.60;-5.10;98223.00;;;;5019535;28;87716;-60
2022/01/26 08:54:45;;;;;;;29.02;22.80;;;-4.50;97.60;-5.00;98216.00;;;;5018020;28;87393;-60
2022/01/26 08:57:11;;;;;;;32.22;23.38;;;-4.40;97.60;-5.00;98222.00;;;;5020112;28;86958;-61
2022/01/26 08:59:37;;;;;;;27.77;20.52;;;-4.40;97.50;-5.00;98225.00;;;;5019526;28;86337;-61
2022/01/26 09:02:03;;;;;;;30.50;22.52;;;-4.30;97.40;-4.90;98225.00;;;;5018273;28;89009;-61
2022/01/26 09:04:29;;;;;;;27.17;21.52;;;-4.30;97.40;-4.80;98231.00;;;;5019324;28;87631;-61
2022/01/26 09:06:58;;;;;;;28.85;20.15;;;-4.20;97.30;-4.80;98238.00;;;;5018204;28;89093;-60
2022/01/26 09:09:27;;;;;;;27.65;20.27;;;-4.20;97.00;-4.70;98232.00;;;;5019577;28;87415;-60
2022/01/26 09:11:55;;;;;;;26.00;20.45;;;-4.10;97.20;-4.70;98241.00;;;;5019267;28;87739;-61
2022/01/26 09:14:26;;;;;;;22.63;17.60;;;-4.10;96.70;-4.70;98240.00;;;;5019492;28;87316;-60
2022/01/26 09:16:53;;;;;;;24.20;18.77;;;-4.10;96.70;-4.70;98242.00;;;;5020218;28;86906;-60
2022/01/26 09:19:29;;;;;;;21.85;17.23;;;-4.10;96.70;-4.60;98239.00;;;;5019911;28;87121;-61
2022/01/26 09:22:04;;;;;;;26.02;17.67;;;-4.10;96.70;-4.60;98255.00;;;;5019678;28;87535;-60
2022/01/26 09:24:32;;;;;;;22.92;16.85;;;-4.00;96.60;-4.50;98249.00;;;;5013997;28;87355;-60
2022/01/26 09:26:59;;;;;;;22.20;16.83;;;-4.00;96.40;-4.50;98241.00;;;;5019074;28;86879;-61
2022/01/26 09:29:26;;;;;;;23.40;16.58;;;-4.00;96.60;-4.50;98241.00;;;;5019344;28;86986;-60
2022/01/26 09:31:52;;;;;;;20.85;15.52;;;-3.90;96.60;-4.50;98245.00;;;;5018491;28;88849;-60
2022/01/26 09:34:22;;;;;;;20.50;15.25;;;-3.90;96.30;-4.50;98240.00;;;;5017887;28;89872;-60
2022/01/26 09:36:49;;;;;;;20.20;15.75;;;-3.90;96.20;-4.60;98243.00;;;;5019326;28;86884;-61
2022/01/26 09:39:18;;;;;;;19.83;14.57;;;-3.90;96.30;-4.50;98246.00;;;;5018649;28;87348;-61
2022/01/26 09:41:47;;;;;;;17.20;13.43;;;-3.90;96.40;-4.50;98260.00;;;;5019265;28;87568;-61
2022/01/26 09:44:14;;;;;;;18.17;14.35;;;-3.90;96.30;-4.50;98244.00;;;;5019213;28;87616;-61
2022/01/26 09:46:41;;;;;;;15.77;12.48;;;-3.90;96.20;-4.40;98238.00;;;;5019224;28;86913;-59
2022/01/26 09:49:08;;;;;;;17.55;13.05;;;-3.80;96.10;-4.40;98235.00;;;;5018799;28;86342;-59
2022/01/26 09:51:43;;;;;;;16.70;13.10;;;-3.80;95.90;-4.30;98252.00;;;;5011666;28;87689;-58
2022/01/26 09:54:16;;;;;;;16.10;13.40;;;-3.80;95.80;-4.30;98244.00;;;;5019377;28;88541;-59
2022/01/26 09:56:46;;;;;;;16.73;12.75;;;-3.70;95.70;-4.20;98249.00;;;;5022812;28;88051;-61
2022/01/26 09:59:15;;;;;;;17.70;13.05;;;-3.70;95.80;-4.20;98263.00;;;;5004991;28;87546;-61
2022/01/26 10:01:49;;;;;;;19.40;13.65;;;-3.60;95.60;-4.10;98262.00;;;;5021466;28;87716;-60
2022/01/26 10:04:27;;;;;;;15.60;12.43;;;-3.60;95.60;-4.10;98257.00;;;;5020567;28;87320;-61
2022/01/26 10:18:17;;;;;;;12.32;9.90;;;-3.60;95.00;-4.20;98260.00;;;;5019583;28;87373;-59
2022/01/26 10:20:54;;;;;;;10.50;8.75;;;-3.60;94.90;-4.20;98260.00;;;;5022764;28;86983;-60
2022/01/26 10:23:25;;;;;;;10.20;8.20;;;-3.60;94.70;-4.20;98271.00;;;;5021335;28;89915;-60
2022/01/26 10:26:12;;;;;;;8.82;7.22;;;-3.70;94.70;-4.20;98264.00;;;;5022901;28;88457;-61
2022/01/26 10:28:50;;;;;;;9.07;7.00;;;-3.60;95.00;-4.20;98265.00;;;;5006623;28;86908;-59
2022/01/26 10:31:22;;;;;;;9.50;7.13;;;-3.60;95.00;-4.20;98265.00;;;;5023146;28;87345;-58
2022/01/26 10:33:58;;;;;;;14.98;7.25;;;-3.60;94.90;-4.20;98264.00;;;;5022526;28;87632;-58
2022/01/26 10:36:26;;;;;;;10.50;8.23;;;-3.60;94.90;-4.10;98257.00;;;;5020939;28;87052;-59
2022/01/26 10:39:29;;;;;;;10.32;7.53;;;-3.50;95.00;-4.10;98268.00;;;;5021629;28;87493;-59
2022/01/26 10:42:00;;;;;;;10.48;7.78;;;-3.50;95.00;-4.10;98256.00;;;;5022594;28;86503;-60
2022/01/26 10:44:36;;;;;;;9.15;7.35;;;-3.50;95.10;-4.10;98252.00;;;;5022261;28;87376;-60
2022/01/26 10:47:05;;;;;;;10.95;8.00;;;-3.50;95.10;-4.10;98252.00;;;;5022648;28;87320;-60
2022/01/26 10:52:24;;;;;;;10.00;7.20;;;-3.50;95.00;-4.10;98264.00;;;;5023242;28;86855;-60
2022/01/26 10:54:51;;;;;;;9.30;7.40;;;-3.40;95.00;-4.10;98269.00;;;;5019917;28;88727;-60
2022/01/26 10:57:19;;;;;;;7.75;6.55;;;-3.50;94.90;-4.20;98265.00;;;;5022772;28;87794;-60
2022/01/26 10:59:49;;;;;;;8.70;7.32;;;-3.60;94.90;-4.20;98265.00;;;;5004365;28;87295;-59
2022/01/26 11:02:32;;;;;;;9.40;7.65;;;-3.60;95.00;-4.20;98268.00;;;;5021760;28;87255;-59
2022/01/26 11:04:59;;;;;;;8.20;6.97;;;-3.60;95.10;-4.10;98262.00;;;;5019918;28;88176;-62
2022/01/26 11:07:40;;;;;;;10.30;7.82;;;-3.50;95.00;-4.10;98262.00;;;;5022307;28;86966;-62
2022/01/26 11:10:08;;;;;;;10.50;6.87;;;-3.50;95.10;-4.20;98266.00;;;;5021594;28;86952;-62
2022/01/26 11:12:40;;;;;;;9.38;7.93;;;-3.60;95.00;-4.20;98268.00;;;;5022030;28;87472;-61
2022/01/26 11:15:17;;;;;;;10.57;7.47;;;-3.60;95.10;-4.10;98264.00;;;;5020933;28;89735;-62
2022/01/26 11:17:46;;;;;;;11.20;8.25;;;-3.60;95.10;-4.10;98254.00;;;;5019599;28;89596;-61
2022/01/26 11:20:30;;;;;;;9.18;7.55;;;-3.50;95.20;-4.10;98259.00;;;;5022063;28;87035;-61
2022/01/26 11:22:59;;;;;;;10.50;7.68;;;-3.50;95.20;-4.10;98259.00;;;;5022172;28;87169;-61
2022/01/26 11:25:29;;;;;;;9.38;7.78;;;-3.50;95.10;-4.10;98264.00;;;;5020726;28;88731;-61
2022/01/26 11:27:57;;;;;;;9.93;7.75;;;-3.50;95.10;-4.10;98249.00;;;;5022261;28;87441;-61
2022/01/26 11:30:33;;;;;;;10.25;8.23;;;-3.50;95.20;-4.10;98252.00;;;;5021417;28;87020;-62
2022/01/26 11:33:13;;;;;;;11.05;8.05;;;-3.50;95.00;-4.10;98266.00;;;;5022009;28;86325;-60
2022/01/26 11:35:45;;;;;;;9.07;7.35;;;-3.40;95.10;-4.00;98258.00;;;;5020773;28;87950;-60
2022/01/26 11:47:21;;;;;;;11.15;9.00;;;-3.40;95.70;-4.00;98252.00;;;;5020715;28;88678;-59
2022/01/26 11:49:52;;;;;;;11.70;8.55;;;-3.40;95.60;-4.00;98263.00;;;;5021207;28;87795;-62
2022/01/26 11:52:25;;;;;;;12.55;9.48;;;-3.50;95.30;-4.00;98264.00;;;;5020705;28;87788;-60
2022/01/26 11:54:59;;;;;;;14.25;9.20;;;-3.40;95.50;-4.00;98250.00;;;;5021469;28;87020;-60
2022/01/26 11:57:52;;;;;;;10.95;8.60;;;-3.40;95.60;-4.00;98267.00;;;;5021738;28;87576;-60
2022/01/26 12:00:42;;;;;;;11.45;8.70;;;-3.40;95.50;-4.00;98270.00;;;;5020730;28;87270;-62
2022/01/26 12:03:21;;;;;;;13.05;9.57;;;-3.40;95.70;-4.00;98273.00;;;;5021444;28;87089;-61
2022/01/26 12:05:48;;;;;;;15.13;9.23;;;-3.40;95.70;-4.00;98269.00;;;;5021075;28;87083;-61
2022/01/26 12:08:14;;;;;;;10.85;7.93;;;-3.30;95.60;-4.00;98261.00;;;;5018836;28;88465;-62
2022/01/26 12:10:44;;;;;;;10.43;7.88;;;-3.40;95.40;-4.00;98279.00;;;;5020676;28;88321;-62
2022/01/26 12:13:20;;;;;;;12.70;8.45;;;-3.40;95.50;-3.90;98270.00;;;;5020562;28;87099;-62
2022/01/26 12:16:09;;;;;;;11.68;8.02;;;-3.30;95.50;-4.00;98278.00;;;;5015645;28;87592;-62
2022/01/26 12:35:55;;;;;;;8.93;7.90;;;-3.40;95.50;-4.00;98280.00;;;;5018504;28;88372;-60
2022/01/26 12:38:32;;;;;;;13.13;8.50;;;-3.40;95.50;-4.00;98283.00;;;;5020993;28;87381;-61
2022/01/26 12:43:43;;;;;;;9.35;7.80;;;-3.50;95.50;-4.00;98299.00;;;;5020010;28;87187;-61
2022/01/26 12:46:16;;;;;;;9.95;7.70;;;-3.40;95.70;-4.00;98294.00;;;;5021094;28;87314;-61
2022/01/26 12:48:50;;;;;;;10.30;7.75;;;-3.40;95.50;-4.00;98302.00;;;;5020448;28;86932;-61
2022/01/26 12:51:17;;;;;;;10.15;8.07;;;-3.40;95.50;-4.00;98298.00;;;;5019940;28;87647;-61
2022/01/26 12:53:44;;;;;;;10.65;7.88;;;-3.40;95.80;-4.00;98296.00;;;;5021179;28;87064;-61
2022/01/26 12:56:14;;;;;;;7.82;5.95;;;-3.40;95.90;-4.00;98298.00;;;;5020071;28;86881;-61
2022/01/26 12:58:42;;;;;;;10.15;7.45;;;-3.40;95.50;-4.00;98294.00;;;;5019299;28;87123;-61
2022/01/26 13:01:17;;;;;;;7.82;6.22;;;-3.40;95.60;-4.10;98287.00;;;;5019539;28;88520;-60
2022/01/26 13:03:47;;;;;;;11.30;6.18;;;-3.40;95.30;-4.10;98291.00;;;;5019074;28;87501;-61
2022/01/26 13:06:23;;;;;;;9.00;5.55;;;-3.50;95.40;-4.10;98288.00;;;;5019667;28;87419;-60
2022/01/26 13:08:56;;;;;;;8.65;5.72;;;-3.50;95.60;-4.10;98295.00;;;;5020341;28;87057;-60
2022/01/26 13:11:35;;;;;;;8.20;5.45;;;-3.50;95.40;-4.10;98298.00;;;;5018346;28;88002;-60
2022/01/26 13:26:04;;;;;;;10.05;6.88;;;-3.50;95.90;-4.10;98305.00;;;;5019204;28;88358;-62
2022/01/26 13:28:57;;;;;;;14.15;7.20;;;-3.50;96.10;-4.10;98295.00;;;;5019071;28;88332;-62